Storm Events Database

Event Details

Event Thunderstorm Wind
Magnitude 52 kts.
State OKLAHOMA
County/Area WASHITA
WFO OUN
Begin Date 06/09/2008 00:30:00 CST-6
Begin Range 4
Begin Azimuth WNW
Begin Location BESSIE
Begin Lat/Lon 35.4/-99.06
End Date 06/09/2008 00:30:00 CST-6
Deaths Direct/Indirect 0/0 (fatality details below, when available...)
Injuries Direct/Indirect 0/0
Property Damage 0.00K
Crop Damage 0.00K
Episode Narrative Thunderstorms developed along a cold front that moved into northwest Oklahoma during the late afternoon hours of the 8th, with large hail and strong gusty winds reported. The storms congealed into a heavy rain complex with isolated severe thunderstorms embedded as the low-level jet developed. This complex moved slowly southeast through the night and morning hours. Numerous locations reported two to four inches of rain.
Event Narrative


All events for this episode:

Location County/Zone St. Date Time T.Z. Type Mag Dth Inj PrD CrD
Totals: 0 0 74.00K 0.00K
SHATTUCK ELLIS CO. OK 06/08/2008 15:13 CST-6 Hail 0.75 in. 0 0 0.00K 0.00K
ARNETT ELLIS CO. OK 06/08/2008 15:18 CST-6 Hail 1.25 in. 0 0 0.00K 0.00K
ARNETT ELLIS CO. OK 06/08/2008 15:22 CST-6 Hail 2.75 in. 0 0 0.00K 0.00K
SHATTUCK ELLIS CO. OK 06/08/2008 15:28 CST-6 Hail 2.75 in. 0 0 0.00K 0.00K
ARNETT ELLIS CO. OK 06/08/2008 15:58 CST-6 Hail 1.75 in. 0 0 0.00K 0.00K
AVARD WOODS CO. OK 06/08/2008 16:00 CST-6 Hail 1.75 in. 0 0 0.00K 0.00K
HARMON ELLIS CO. OK 06/08/2008 16:11 CST-6 Hail 1.75 in. 0 0 0.00K 0.00K
HARMON ELLIS CO. OK 06/08/2008 16:20 CST-6 Hail 2.75 in. 0 0 0.00K 0.00K
HOPETON WOODS CO. OK 06/08/2008 16:35 CST-6 Hail 1.00 in. 0 0 0.00K 0.00K
SHARON WOODWARD CO. OK 06/08/2008 16:40 CST-6 Hail 1.00 in. 0 0 0.00K 0.00K
SHATTUCK ELLIS CO. OK 06/08/2008 16:41 CST-6 Hail 2.75 in. 0 0 0.00K 0.00K
MUTUAL WOODWARD CO. OK 06/08/2008 16:50 CST-6 Hail 2.00 in. 0 0 0.00K 0.00K
SHATTUCK ELLIS CO. OK 06/08/2008 17:03 CST-6 Hail 1.00 in. 0 0 0.00K 0.00K
CHEROKEE ALFALFA CO. OK 06/08/2008 17:15 CST-6 Hail 0.75 in. 0 0 0.00K 0.00K
MUTUAL WOODWARD CO. OK 06/08/2008 17:20 CST-6 Thunderstorm Wind 52 kts. MG 0 0 0.00K 0.00K
MUTUAL WOODWARD CO. OK 06/08/2008 17:30 CST-6 Thunderstorm Wind 63 kts. MG 0 0 0.00K 0.00K
FAIRVIEW MAJOR CO. OK 06/08/2008 18:25 CST-6 Thunderstorm Wind 65 kts. EG 0 0 60.00K 0.00K
DEMPSEY ROGER MILLS CO. OK 06/08/2008 18:35 CST-6 Hail 1.75 in. 0 0 0.00K 0.00K
REYDON ROGER MILLS CO. OK 06/08/2008 18:35 CST-6 Hail 2.50 in. 0 0 0.00K 0.00K
CHEYENNE ROGER MILLS CO. OK 06/08/2008 18:45 CST-6 Thunderstorm Wind 56 kts. EG 0 0 10.00K 0.00K
MENO MAJOR CO. OK 06/08/2008 18:55 CST-6 Thunderstorm Wind 54 kts. MG 0 0 0.00K 0.00K
(END)VANCE AFB ENID GARFIELD CO. OK 06/08/2008 19:10 CST-6 Thunderstorm Wind 50 kts. MG 0 0 0.00K 0.00K
CHEYENNE ROGER MILLS CO. OK 06/08/2008 19:45 CST-6 Thunderstorm Wind 52 kts. MG 0 0 0.00K 0.00K
STRONG CITY ROGER MILLS CO. OK 06/08/2008 20:45 CST-6 Flash Flood 0 0 0.00K 0.00K
CANTON BLAINE CO. OK 06/08/2008 21:30 CST-6 Thunderstorm Wind 52 kts. EG 0 0 2.00K 0.00K
LEEDEY DEWEY CO. OK 06/08/2008 22:30 CST-6 Hail 0.88 in. 0 0 0.00K 0.00K
REYDON ROGER MILLS CO. OK 06/08/2008 23:10 CST-6 Thunderstorm Wind 61 kts. EG 0 0 0.00K 0.00K
FAIRVIEW MAJOR CO. OK 06/09/2008 00:25 CST-6 Thunderstorm Wind 52 kts. EG 0 0 2.00K 0.00K
BESSIE WASHITA CO. OK 06/09/2008 00:30 CST-6 Thunderstorm Wind 52 kts. MG 0 0 0.00K 0.00K
CARNEGIE CADDO CO. OK 06/09/2008 01:27 CST-6 Thunderstorm Wind 52 kts. EG 0 0 0.00K 0.00K
NORMAN CLEVELAND CO. OK 06/09/2008 02:52 CST-6 Thunderstorm Wind 56 kts. EG 0 0 0.00K 0.00K
(OUN)NORMAN WESTHEIMER ARPT CLEVELAND CO. OK 06/09/2008 03:00 CST-6 Thunderstorm Wind 51 kts. MG 0 0 0.00K 0.00K
Totals: 0 0 74.00K 0.00K